Time;durP1;ratioP1;P1;durP2;ratioP2;P2;SDS_P1;SDS_P2;PMS_P1;PMS_P2;Temp;Humidity;BMP_temperature;BMP_pressure;BME280_temperature;BME280_humidity;BME280_pressure;Samples;Min_cycle;Max_cycle;Signal;HPM_P1;HPM_P2
2023/08/05 00:00:15;;;;;;;11.00;4.90;;;14.00;99.90;;;;;;4991206;28;20494;-78
2023/08/05 00:02:41;;;;;;;10.15;4.90;;;13.90;99.90;;;;;;4991968;28;20463;-79
2023/08/05 00:05:07;;;;;;;7.95;4.57;;;13.80;99.90;;;;;;4992180;28;20034;-81
2023/08/05 00:07:33;;;;;;;7.07;4.47;;;13.80;99.90;;;;;;5006918;28;20026;-82
2023/08/05 00:10:02;;;;;;;6.78;4.32;;;13.80;99.90;;;;;;4992188;28;20065;-81
2023/08/05 00:12:27;;;;;;;10.07;3.85;;;13.70;99.90;;;;;;4990454;28;20482;-79
2023/08/05 00:14:53;;;;;;;5.70;4.05;;;13.70;99.90;;;;;;4992338;28;20031;-78
2023/08/05 00:17:19;;;;;;;7.88;4.50;;;13.60;99.90;;;;;;5007024;28;20034;-76
2023/08/05 00:19:44;;;;;;;7.60;3.95;;;13.60;99.90;;;;;;4991715;28;20801;-77
2023/08/05 00:22:10;;;;;;;8.60;4.72;;;13.50;99.90;;;;;;4991471;28;20176;-77
2023/08/05 00:24:36;;;;;;;9.20;4.55;;;13.50;99.90;;;;;;4991104;28;20157;-76
2023/08/05 00:27:02;;;;;;;8.93;4.80;;;13.40;99.90;;;;;;4990565;28;20034;-78
2023/08/05 00:29:30;;;;;;;7.43;4.28;;;13.40;99.90;;;;;;4990399;28;20022;-80
2023/08/05 00:31:56;;;;;;;8.23;4.68;;;13.30;99.90;;;;;;4991778;28;20034;-79
2023/08/05 00:34:22;;;;;;;7.78;4.30;;;13.20;99.90;;;;;;4992032;28;20040;-79
2023/08/05 00:36:47;;;;;;;10.95;4.18;;;13.10;99.90;;;;;;4991147;28;20050;-80
2023/08/05 00:39:14;;;;;;;7.82;4.15;;;13.10;99.90;;;;;;4992510;28;20446;-81
2023/08/05 00:41:40;;;;;;;8.88;4.28;;;13.10;99.90;;;;;;4991464;28;20037;-80
2023/08/05 00:44:05;;;;;;;6.72;3.80;;;13.10;99.90;;;;;;4992376;28;20375;-78
2023/08/05 00:46:32;;;;;;;7.25;4.07;;;13.10;99.90;;;;;;4991374;28;20427;-78
2023/08/05 00:48:57;;;;;;;6.82;3.88;;;13.00;99.90;;;;;;4991438;28;20038;-78
2023/08/05 00:51:23;;;;;;;6.45;3.85;;;13.00;99.90;;;;;;4991685;28;20149;-79
2023/08/05 00:53:50;;;;;;;7.15;4.05;;;13.00;99.90;;;;;;4991877;28;20030;-81
2023/08/05 00:56:16;;;;;;;9.40;4.32;;;13.00;99.90;;;;;;4992144;28;20486;-81
2023/08/05 00:58:45;;;;;;;6.70;4.10;;;13.00;99.90;;;;;;4989915;28;20545;-80
2023/08/05 01:01:10;;;;;;;11.48;4.28;;;12.90;99.90;;;;;;4991063;28;20077;-81
2023/08/05 01:03:37;;;;;;;9.32;4.43;;;12.90;99.90;;;;;;4990247;28;20057;-79
2023/08/05 01:06:07;;;;;;;6.90;4.05;;;12.90;99.90;;;;;;4991619;28;20472;-77
2023/08/05 01:08:33;;;;;;;7.93;4.20;;;12.80;99.90;;;;;;4990858;28;20035;-78
2023/08/05 01:11:00;;;;;;;11.90;4.25;;;12.90;99.90;;;;;;4991557;28;20545;-79
2023/08/05 01:13:29;;;;;;;7.30;3.83;;;12.90;99.90;;;;;;4991386;28;20030;-82
2023/08/05 01:15:55;;;;;;;7.60;4.18;;;12.90;99.90;;;;;;4991238;28;20069;-78
2023/08/05 01:18:23;;;;;;;8.43;4.00;;;12.90;99.90;;;;;;4991536;28;20061;-81
2023/08/05 01:20:53;;;;;;;7.13;3.92;;;12.90;99.90;;;;;;4991257;28;20137;-80
2023/08/05 01:23:51;;;;;;;8.73;4.30;;;12.80;99.90;;;;;;4991233;28;20026;-79
2023/08/05 01:26:17;;;;;;;9.32;4.22;;;12.80;99.90;;;;;;4991677;28;20033;-79
2023/08/05 01:28:45;;;;;;;10.00;4.80;;;12.80;99.90;;;;;;4990811;28;20364;-79
2023/08/05 01:31:13;;;;;;;7.10;4.10;;;12.90;99.90;;;;;;4991495;28;20117;-79
2023/08/05 01:33:39;;;;;;;11.18;3.97;;;12.90;99.90;;;;;;4990932;28;20447;-80
2023/08/05 01:36:05;;;;;;;8.20;4.10;;;12.90;99.90;;;;;;4990440;28;20117;-79
2023/08/05 01:38:30;;;;;;;6.90;3.38;;;12.80;99.90;;;;;;4994676;28;20125;-79
2023/08/05 01:40:56;;;;;;;8.77;3.75;;;12.90;99.90;;;;;;4994791;28;20031;-80
2023/08/05 01:43:22;;;;;;;8.13;3.38;;;12.90;99.90;;;;;;4994454;28;20038;-78
2023/08/05 01:45:47;;;;;;;6.70;3.40;;;12.80;99.90;;;;;;4994313;28;20628;-79
2023/08/05 01:48:13;;;;;;;7.13;2.78;;;12.80;99.90;;;;;;4994467;28;20097;-78
2023/08/05 01:50:39;;;;;;;5.05;2.70;;;12.90;99.90;;;;;;4993955;28;20038;-79
2023/08/05 01:53:04;;;;;;;5.93;2.58;;;12.90;99.90;;;;;;4995347;28;20029;-79
2023/08/05 01:55:30;;;;;;;5.38;2.13;;;12.90;99.90;;;;;;4994470;28;20458;-80
2023/08/05 01:57:56;;;;;;;3.63;2.00;;;12.80;99.90;;;;;;5009315;28;20061;-78
2023/08/05 02:00:21;;;;;;;4.43;2.22;;;12.80;99.90;;;;;;4994761;28;20026;-78
2023/08/05 02:02:47;;;;;;;5.07;3.03;;;12.80;99.90;;;;;;4994576;28;20115;-78
2023/08/05 02:05:13;;;;;;;7.72;2.60;;;12.80;99.90;;;;;;4995013;28;20502;-82
2023/08/05 02:07:39;;;;;;;5.10;2.67;;;12.80;99.90;;;;;;5000047;28;20054;-84
2023/08/05 02:10:05;;;;;;;7.55;2.50;;;12.70;99.90;;;;;;5013936;28;20034;-85
2023/08/05 02:12:30;;;;;;;6.10;2.97;;;12.70;99.90;;;;;;4995951;28;20034;-84
2023/08/05 02:14:56;;;;;;;3.92;2.40;;;12.70;99.90;;;;;;4992831;28;20033;-79
2023/08/05 02:17:22;;;;;;;5.80;2.50;;;12.70;99.90;;;;;;4994122;28;20045;-79
2023/08/05 02:19:47;;;;;;;7.20;3.10;;;12.80;99.90;;;;;;4993365;28;20026;-79
2023/08/05 02:22:13;;;;;;;5.40;1.70;;;12.80;99.90;;;;;;4994405;28;20034;-77
2023/08/05 02:24:39;;;;;;;6.53;1.98;;;12.80;99.90;;;;;;5008389;28;20030;-78
2023/08/05 02:27:05;;;;;;;3.17;1.70;;;12.70;99.90;;;;;;4993907;28;20369;-78
2023/08/05 02:29:30;;;;;;;3.08;1.90;;;12.70;99.90;;;;;;4993039;28;20096;-84
2023/08/05 02:31:59;;;;;;;4.78;1.77;;;12.80;99.90;;;;;;5009515;28;20038;-80
2023/08/05 02:34:25;;;;;;;4.10;1.83;;;12.80;99.90;;;;;;4985207;28;20035;-80
2023/08/05 02:36:51;;;;;;;6.82;1.67;;;12.80;99.90;;;;;;4974355;28;20684;-80
2023/08/05 02:39:17;;;;;;;3.40;1.42;;;12.80;99.90;;;;;;4973176;28;20086;-78
2023/08/05 02:41:42;;;;;;;4.97;1.75;;;12.80;99.90;;;;;;4973954;28;20031;-79
2023/08/05 02:44:08;;;;;;;3.25;1.35;;;12.80;99.90;;;;;;4974542;28;20027;-79
2023/08/05 02:46:34;;;;;;;2.20;1.45;;;12.80;99.90;;;;;;4974437;28;20469;-80
2023/08/05 02:48:59;;;;;;;5.57;1.75;;;12.80;99.90;;;;;;4974240;28;20089;-81
2023/08/05 02:51:25;;;;;;;3.50;1.23;;;12.80;99.90;;;;;;4974135;28;20062;-88
2023/08/05 02:53:51;;;;;;;4.20;1.48;;;12.80;99.90;;;;;;4975214;28;20022;-84
2023/08/05 02:56:16;;;;;;;3.33;1.30;;;12.80;99.90;;;;;;4975263;28;20022;-82
2023/08/05 02:58:42;;;;;;;2.50;0.98;;;12.80;99.90;;;;;;4974253;28;20027;-79
2023/08/05 03:01:08;;;;;;;3.53;1.17;;;12.90;99.90;;;;;;4974788;28;20426;-79
2023/08/05 03:03:37;;;;;;;2.15;0.68;;;12.90;99.90;;;;;;4974296;28;20361;-79
2023/08/05 03:06:03;;;;;;;5.30;1.30;;;12.80;99.90;;;;;;4974712;28;20031;-79
2023/08/05 03:08:29;;;;;;;2.53;1.20;;;12.90;99.90;;;;;;4974076;28;20035;-79
2023/08/05 03:10:59;;;;;;;2.42;1.10;;;12.90;99.90;;;;;;4973539;28;20038;-79
2023/08/05 03:13:25;;;;;;;2.85;0.63;;;12.90;99.90;;;;;;4974419;28;20019;-81
2023/08/05 03:15:53;;;;;;;1.65;0.63;;;12.90;99.90;;;;;;4974159;28;20038;-80
2023/08/05 03:18:20;;;;;;;1.20;0.40;;;12.90;99.90;;;;;;4974055;28;20042;-79
2023/08/05 03:20:47;;;;;;;1.38;0.77;;;12.90;99.90;;;;;;4956457;28;20404;-79
2023/08/05 03:23:13;;;;;;;2.25;0.90;;;13.00;99.90;;;;;;4974380;28;20030;-82
2023/08/05 03:25:39;;;;;;;5.57;0.88;;;13.10;99.90;;;;;;4972717;28;20034;-84
2023/08/05 03:28:05;;;;;;;5.38;0.88;;;13.10;99.90;;;;;;4975129;28;20027;-86
2023/08/05 03:30:31;;;;;;;5.78;1.02;;;13.10;99.90;;;;;;4975430;28;20349;-87
2023/08/05 03:32:56;;;;;;;5.50;0.80;;;13.10;99.90;;;;;;4973255;28;20515;-86
2023/08/05 03:35:23;;;;;;;8.63;0.98;;;13.10;99.90;;;;;;4972995;28;20057;-87
2023/08/05 03:37:48;;;;;;;4.05;1.05;;;13.10;99.90;;;;;;4973020;28;20069;-86
2023/08/05 03:40:14;;;;;;;7.85;1.27;;;13.20;99.90;;;;;;4974328;28;20407;-89
2023/08/05 03:42:41;;;;;;;3.53;0.88;;;13.10;99.90;;;;;;4972865;28;20441;-88
2023/08/05 03:45:12;;;;;;;4.20;0.80;;;13.10;99.90;;;;;;4974635;28;20045;-87
2023/08/05 03:47:38;;;;;;;5.00;0.57;;;13.10;99.90;;;;;;4972737;28;20031;-88
2023/08/05 03:50:05;;;;;;;3.58;0.90;;;13.10;99.90;;;;;;4974302;28;20019;-84
2023/08/05 03:52:31;;;;;;;4.30;0.80;;;13.10;99.90;;;;;;4973276;28;20447;-85
2023/08/05 03:54:57;;;;;;;4.70;0.70;;;13.10;99.90;;;;;;4973514;28;20037;-85
2023/08/05 03:57:22;;;;;;;2.97;0.60;;;13.10;99.90;;;;;;4974176;28;20019;-85
2023/08/05 03:59:49;;;;;;;8.52;0.98;;;13.10;99.90;;;;;;4973508;28;20031;-85
2023/08/05 04:02:15;;;;;;;13.10;0.93;;;13.00;99.90;;;;;;4974100;28;20074;-83
2023/08/05 04:04:42;;;;;;;9.27;1.20;;;13.10;99.90;;;;;;4973650;28;20117;-85
2023/08/05 04:07:08;;;;;;;8.45;1.20;;;13.10;99.90;;;;;;4974165;28;20456;-83
2023/08/05 04:09:36;;;;;;;2.45;0.90;;;13.10;99.90;;;;;;4972761;28;20059;-83
2023/08/05 04:12:04;;;;;;;2.25;0.70;;;13.20;99.90;;;;;;4973831;28;20035;-84
2023/08/05 04:14:30;;;;;;;4.68;0.77;;;13.10;99.90;;;;;;4974766;28;20117;-84
2023/08/05 04:17:02;;;;;;;8.50;1.10;;;13.10;99.90;;;;;;4973942;28;20041;-85
2023/08/05 04:19:28;;;;;;;3.03;1.20;;;13.10;99.90;;;;;;4973681;28;20034;-87
2023/08/05 04:21:54;;;;;;;5.82;1.10;;;13.10;99.90;;;;;;4976971;28;20030;-83
2023/08/05 04:24:22;;;;;;;4.95;0.70;;;13.10;99.90;;;;;;4975990;28;20027;-85
2023/08/05 04:26:51;;;;;;;5.10;0.57;;;13.10;99.90;;;;;;4976820;28;20480;-86
2023/08/05 04:29:18;;;;;;;7.85;1.05;;;13.00;99.90;;;;;;4974751;28;20031;-84
2023/08/05 04:31:45;;;;;;;4.15;0.73;;;12.90;99.90;;;;;;4972453;28;20121;-87
2023/08/05 04:34:11;;;;;;;6.32;1.35;;;12.90;99.90;;;;;;4974823;28;20099;-87
2023/08/05 04:36:37;;;;;;;8.40;1.17;;;13.00;99.90;;;;;;4973838;28;20480;-86
2023/08/05 04:39:03;;;;;;;7.78;1.73;;;13.00;99.90;;;;;;4972547;28;20038;-88
2023/08/05 04:41:29;;;;;;;9.75;1.20;;;13.00;99.90;;;;;;4972644;28;20030;-86
2023/08/05 04:43:54;;;;;;;13.57;1.80;;;13.00;99.90;;;;;;4972347;28;20183;-85
2023/08/05 04:46:20;;;;;;;10.15;1.60;;;13.00;99.90;;;;;;4973870;28;20062;-84
2023/08/05 04:48:46;;;;;;;9.05;1.20;;;13.00;99.90;;;;;;4973235;28;20023;-86
2023/08/05 04:51:12;;;;;;;19.00;1.80;;;12.90;99.90;;;;;;4973819;28;20046;-90
2023/08/05 04:53:37;;;;;;;15.45;1.58;;;12.90;99.90;;;;;;4974846;28;20038;-90
2023/08/05 04:56:06;;;;;;;20.10;2.45;;;13.00;99.90;;;;;;4973196;28;20030;-86
2023/08/05 04:58:32;;;;;;;15.73;2.00;;;13.00;99.90;;;;;;4972593;28;20536;-85
2023/08/05 05:00:58;;;;;;;17.83;2.13;;;12.90;99.90;;;;;;4971730;28;20066;-86
2023/08/05 05:03:25;;;;;;;14.57;1.88;;;12.90;99.90;;;;;;4973275;28;20037;-85
2023/08/05 05:05:51;;;;;;;13.63;2.22;;;12.90;99.90;;;;;;4972408;28;20464;-83
2023/08/05 05:08:17;;;;;;;14.75;2.20;;;13.00;99.90;;;;;;4971247;28;20031;-81
2023/08/05 05:10:46;;;;;;;12.55;1.92;;;13.00;99.90;;;;;;4970028;28;20066;-80
2023/08/05 05:13:12;;;;;;;22.25;2.80;;;13.00;99.90;;;;;;4972247;28;20118;-80
2023/08/05 05:15:38;;;;;;;19.42;2.75;;;12.90;99.90;;;;;;4972239;28;20161;-80
2023/08/05 05:18:03;;;;;;;20.33;3.20;;;12.90;99.90;;;;;;4970839;28;20026;-79
2023/08/05 05:20:29;;;;;;;18.40;3.38;;;12.80;99.90;;;;;;4970958;28;20039;-79
2023/08/05 05:22:55;;;;;;;23.83;3.50;;;12.90;99.90;;;;;;4971964;28;20027;-78
2023/08/05 05:25:22;;;;;;;19.90;4.05;;;12.80;99.90;;;;;;4972284;28;20029;-79
2023/08/05 05:27:48;;;;;;;16.38;3.38;;;12.70;99.90;;;;;;4971665;28;20038;-77
2023/08/05 05:30:13;;;;;;;24.52;3.80;;;12.70;99.90;;;;;;4971892;28;20031;-77
2023/08/05 05:32:39;;;;;;;17.98;3.38;;;12.70;99.90;;;;;;4971824;28;20384;-78
2023/08/05 05:35:05;;;;;;;17.20;3.42;;;12.70;99.90;;;;;;4971756;28;20034;-78
2023/08/05 05:37:31;;;;;;;18.30;3.55;;;12.60;99.90;;;;;;4972046;28;20055;-78
2023/08/05 05:39:56;;;;;;;16.67;4.07;;;12.60;99.90;;;;;;4971338;28;20113;-78
2023/08/05 05:42:22;;;;;;;19.00;4.70;;;12.60;99.90;;;;;;4971530;28;20081;-77
2023/08/05 05:44:52;;;;;;;16.50;4.50;;;12.50;99.90;;;;;;4971448;28;20019;-82
2023/08/05 05:47:19;;;;;;;18.35;4.68;;;12.50;99.90;;;;;;4970539;28;20432;-80
2023/08/05 05:49:46;;;;;;;14.93;4.28;;;12.40;99.90;;;;;;4971869;28;20039;-83
2023/08/05 05:52:15;;;;;;;14.45;4.38;;;12.30;99.90;;;;;;4972577;28;20041;-81
2023/08/05 05:54:41;;;;;;;21.13;5.20;;;12.30;99.90;;;;;;4972506;28;20042;-83
2023/08/05 05:57:07;;;;;;;25.48;6.40;;;12.10;99.90;;;;;;4970622;28;20465;-82
2023/08/05 05:59:32;;;;;;;22.45;6.25;;;12.10;99.90;;;;;;4972500;28;20034;-85
2023/08/05 06:01:58;;;;;;;18.85;6.18;;;12.00;99.90;;;;;;4973129;28;20037;-87
2023/08/05 06:04:27;;;;;;;32.80;8.38;;;11.90;99.90;;;;;;4973080;28;20023;-84
2023/08/05 06:06:55;;;;;;;22.83;8.63;;;11.90;99.90;;;;;;4975453;28;20142;-85
2023/08/05 06:09:21;;;;;;;29.63;8.55;;;11.90;99.90;;;;;;4976612;28;20332;-83
2023/08/05 06:11:47;;;;;;;24.88;7.90;;;11.70;99.90;;;;;;4977559;28;20035;-86
2023/08/05 06:14:13;;;;;;;24.70;7.38;;;11.70;99.90;;;;;;4979087;28;20039;-85
2023/08/05 06:16:39;;;;;;;20.00;7.35;;;11.70;99.90;;;;;;4979591;28;20030;-83
2023/08/05 06:19:05;;;;;;;21.90;7.22;;;11.60;99.90;;;;;;4978551;28;20507;-85
2023/08/05 06:21:30;;;;;;;19.25;7.57;;;11.60;99.90;;;;;;4977048;28;20026;-84
2023/08/05 06:23:56;;;;;;;22.15;8.07;;;11.50;99.90;;;;;;4975673;28;20448;-90
2023/08/05 06:26:22;;;;;;;27.83;8.55;;;11.60;99.90;;;;;;4975344;28;20310;-85
2023/08/05 06:28:49;;;;;;;27.20;8.73;;;11.60;99.90;;;;;;4975929;28;20066;-88
2023/08/05 06:31:17;;;;;;;24.17;7.95;;;11.60;99.90;;;;;;4974992;28;20133;-87
2023/08/05 06:33:45;;;;;;;24.17;8.45;;;11.60;99.90;;;;;;4974653;28;20033;-87
2023/08/05 06:36:11;;;;;;;24.95;9.05;;;11.50;99.90;;;;;;4975350;28;20460;-90
2023/08/05 06:38:37;;;;;;;21.92;6.65;;;11.50;99.90;;;;;;4975414;28;20047;-85
2023/08/05 06:41:03;;;;;;;21.13;7.43;;;11.50;99.90;;;;;;4975636;28;20031;-86
2023/08/05 06:43:28;;;;;;;22.42;7.50;;;11.50;99.90;;;;;;4974570;28;20023;-86
2023/08/05 06:45:54;;;;;;;18.58;6.60;;;11.50;99.90;;;;;;4974133;28;20457;-86
2023/08/05 06:48:20;;;;;;;17.67;6.38;;;11.40;99.90;;;;;;4975307;28;20437;-83
2023/08/05 06:50:46;;;;;;;15.95;6.50;;;11.40;99.90;;;;;;4975594;28;20035;-86
2023/08/05 06:53:11;;;;;;;17.88;5.43;;;11.40;99.90;;;;;;4975279;28;20062;-86
2023/08/05 06:55:37;;;;;;;16.65;4.95;;;11.40;99.90;;;;;;4975481;28;20526;-85
2023/08/05 06:58:05;;;;;;;14.10;4.20;;;11.30;99.90;;;;;;4974907;28;20089;-84
2023/08/05 07:00:31;;;;;;;16.40;4.10;;;11.40;99.90;;;;;;4973818;28;20118;-83
2023/08/05 07:03:01;;;;;;;11.98;4.53;;;11.30;99.90;;;;;;4974781;28;20063;-86
2023/08/05 07:05:30;;;;;;;14.10;3.75;;;11.30;99.90;;;;;;4974450;28;20357;-87
2023/08/05 07:07:56;;;;;;;16.92;4.70;;;11.30;99.90;;;;;;4974523;28;20116;-85
2023/08/05 07:10:23;;;;;;;11.48;4.22;;;11.30;99.90;;;;;;4973822;28;20136;-86
2023/08/05 07:12:48;;;;;;;12.00;3.30;;;11.30;99.90;;;;;;4974693;28;20026;-84
2023/08/05 07:15:14;;;;;;;14.70;4.30;;;11.30;99.90;;;;;;4973226;28;20054;-82
2023/08/05 07:17:41;;;;;;;17.42;4.25;;;11.40;99.90;;;;;;4972513;28;20035;-81
2023/08/05 07:20:07;;;;;;;10.98;3.85;;;11.40;99.90;;;;;;4972414;28;20027;-82
2023/08/05 07:22:33;;;;;;;16.73;3.97;;;11.40;99.90;;;;;;4972741;28;20062;-82
2023/08/05 07:24:58;;;;;;;15.75;4.47;;;11.40;99.90;;;;;;4973561;28;20071;-80
2023/08/05 07:27:24;;;;;;;17.95;4.72;;;11.40;99.90;;;;;;4972390;28;20038;-81
2023/08/05 07:29:50;;;;;;;15.93;4.50;;;11.40;99.90;;;;;;4973997;28;20109;-81
2023/08/05 07:32:15;;;;;;;11.75;4.35;;;11.40;99.90;;;;;;4973058;28;20145;-79
2023/08/05 07:34:41;;;;;;;17.60;5.55;;;11.40;99.90;;;;;;4972782;28;20026;-78
2023/08/05 07:37:07;;;;;;;18.70;4.97;;;11.40;99.90;;;;;;4972904;28;20065;-78
2023/08/05 07:39:36;;;;;;;25.08;7.43;;;11.50;99.90;;;;;;4973257;28;20026;-79
2023/08/05 07:42:05;;;;;;;18.65;6.05;;;11.50;99.90;;;;;;4973059;28;20026;-79
2023/08/05 07:44:32;;;;;;;28.65;6.65;;;11.60;99.90;;;;;;4973240;28;20027;-78
2023/08/05 07:47:00;;;;;;;31.25;7.07;;;11.60;99.90;;;;;;4972770;28;20031;-78
2023/08/05 07:49:26;;;;;;;23.55;7.78;;;11.60;99.90;;;;;;4973246;28;20030;-76
2023/08/05 07:51:53;;;;;;;26.27;6.93;;;11.70;99.90;;;;;;4971731;28;20057;-78
2023/08/05 07:54:20;;;;;;;25.15;7.55;;;11.80;99.90;;;;;;4971996;28;20463;-77
2023/08/05 07:56:46;;;;;;;24.77;7.63;;;11.80;99.90;;;;;;4973169;28;20110;-77
2023/08/05 07:59:13;;;;;;;28.02;8.00;;;11.90;99.90;;;;;;4972304;28;20109;-77
2023/08/05 08:01:42;;;;;;;23.33;7.53;;;12.00;99.90;;;;;;4972682;28;20463;-77
2023/08/05 08:04:14;;;;;;;24.25;7.97;;;11.90;99.90;;;;;;4972592;28;20026;-77
2023/08/05 08:06:43;;;;;;;22.98;8.43;;;12.00;99.90;;;;;;4973096;28;20035;-77
2023/08/05 08:09:08;;;;;;;22.08;7.38;;;12.10;99.90;;;;;;4972298;28;20035;-76
2023/08/05 08:11:34;;;;;;;22.23;8.45;;;12.10;99.90;;;;;;4973442;28;20078;-76
2023/08/05 08:14:00;;;;;;;20.38;8.25;;;12.20;99.90;;;;;;4970739;28;20030;-77
2023/08/05 08:16:26;;;;;;;23.70;7.88;;;12.30;99.90;;;;;;4972910;28;20027;-76
2023/08/05 08:18:51;;;;;;;21.63;8.30;;;12.30;99.90;;;;;;4972821;28;20019;-76
2023/08/05 08:21:17;;;;;;;24.60;8.60;;;12.30;99.90;;;;;;4971743;28;20027;-76
2023/08/05 08:23:43;;;;;;;23.25;8.05;;;12.40;99.90;;;;;;4973094;28;20027;-77
2023/08/05 08:26:08;;;;;;;27.02;8.60;;;12.40;99.90;;;;;;4970743;28;20117;-76
2023/08/05 08:28:34;;;;;;;26.65;9.02;;;12.60;99.90;;;;;;4973045;28;20027;-76
2023/08/05 08:31:00;;;;;;;23.52;8.35;;;12.50;99.90;;;;;;4972025;28;20417;-77
2023/08/05 08:33:26;;;;;;;23.30;9.05;;;12.50;99.90;;;;;;4972639;28;20027;-76
2023/08/05 08:35:52;;;;;;;24.55;8.23;;;12.50;99.90;;;;;;4972453;28;20027;-76
2023/08/05 08:38:19;;;;;;;17.98;7.10;;;12.40;99.90;;;;;;4972205;28;20134;-76
2023/08/05 08:40:52;;;;;;;20.88;7.55;;;12.40;99.90;;;;;;4972385;28;20031;-76
2023/08/05 08:43:19;;;;;;;19.25;7.40;;;12.40;99.90;;;;;;4971867;28;20193;-77
2023/08/05 08:45:53;;;;;;;24.77;7.95;;;12.50;99.90;;;;;;4972289;28;20448;-76
2023/08/05 08:48:19;;;;;;;17.88;7.60;;;12.50;99.90;;;;;;4970603;28;20388;-77
2023/08/05 08:50:46;;;;;;;15.90;7.53;;;12.40;99.90;;;;;;4971777;28;20093;-76
2023/08/05 08:53:15;;;;;;;26.33;8.32;;;12.50;99.90;;;;;;4971972;28;20046;-75
2023/08/05 08:55:42;;;;;;;24.13;7.50;;;12.40;99.90;;;;;;4972404;28;20037;-76
2023/08/05 08:58:08;;;;;;;16.35;7.30;;;12.40;99.90;;;;;;4971277;28;20329;-75
2023/08/05 09:00:35;;;;;;;19.52;7.68;;;12.40;99.90;;;;;;4972503;28;20105;-75
2023/08/05 09:03:02;;;;;;;16.02;7.25;;;12.40;99.90;;;;;;4971574;28;20126;-75
2023/08/05 09:05:34;;;;;;;17.40;7.68;;;12.60;99.90;;;;;;4971923;28;20041;-77
2023/08/05 09:08:02;;;;;;;14.80;6.68;;;12.80;99.90;;;;;;4971625;28;20045;-78
2023/08/05 09:10:28;;;;;;;20.25;7.00;;;12.90;99.90;;;;;;4971140;28;20093;-74
2023/08/05 09:12:57;;;;;;;14.23;5.78;;;13.20;99.90;;;;;;4972412;28;20058;-75
2023/08/05 09:15:32;;;;;;;12.10;4.72;;;13.20;99.90;;;;;;4971791;28;20068;-76
2023/08/05 09:17:58;;;;;;;12.20;4.50;;;13.10;99.90;;;;;;4970334;28;20027;-77
2023/08/05 09:20:24;;;;;;;11.52;4.75;;;13.20;99.90;;;;;;4971616;28;20041;-75
2023/08/05 09:22:59;;;;;;;8.13;4.22;;;13.30;99.90;;;;;;4971115;28;20549;-76
2023/08/05 09:25:25;;;;;;;11.57;4.40;;;13.40;99.90;;;;;;4971822;28;20030;-75
2023/08/05 09:27:53;;;;;;;7.18;3.80;;;13.50;99.90;;;;;;4971835;28;20029;-75
2023/08/05 09:30:20;;;;;;;8.48;4.43;;;13.50;99.90;;;;;;4970725;28;20031;-75
2023/08/05 09:32:46;;;;;;;11.65;4.60;;;13.60;99.90;;;;;;4971448;28;20444;-74
2023/08/05 09:35:13;;;;;;;10.32;4.60;;;13.80;99.90;;;;;;4970866;28;20031;-75
2023/08/05 09:37:49;;;;;;;8.77;4.57;;;13.80;99.90;;;;;;4971430;28;20416;-74
2023/08/05 09:40:32;;;;;;;10.43;4.63;;;13.70;99.90;;;;;;4971177;28;20035;-76
2023/08/05 09:42:59;;;;;;;8.35;4.90;;;13.60;99.90;;;;;;4971588;28;20050;-75
2023/08/05 09:45:27;;;;;;;7.18;4.30;;;13.50;99.90;;;;;;4971412;28;20105;-75
2023/08/05 09:48:07;;;;;;;7.10;4.10;;;13.40;99.90;;;;;;4971063;28;20031;-74
2023/08/05 09:50:37;;;;;;;8.27;4.70;;;13.40;99.90;;;;;;4971696;28;20042;-74
2023/08/05 09:53:08;;;;;;;11.25;4.30;;;13.40;99.90;;;;;;4970879;28;20436;-75
2023/08/05 09:55:35;;;;;;;6.40;4.28;;;13.40;99.90;;;;;;4971942;28;20495;-74
2023/08/05 09:58:01;;;;;;;6.00;3.90;;;13.30;99.90;;;;;;4955488;28;20031;-77
2023/08/05 10:00:28;;;;;;;5.63;3.38;;;13.30;99.90;;;;;;4975070;28;20039;-75
2023/08/05 10:02:54;;;;;;;4.28;3.13;;;13.30;99.90;;;;;;4975253;28;20031;-74
2023/08/05 10:05:24;;;;;;;5.13;2.63;;;13.20;99.90;;;;;;4975251;28;20030;-74
2023/08/05 10:07:53;;;;;;;5.47;2.50;;;13.30;99.90;;;;;;4974983;28;20506;-74
2023/08/05 10:10:22;;;;;;;4.22;2.53;;;13.30;99.90;;;;;;4973850;28;20034;-74
2023/08/05 10:12:57;;;;;;;4.43;2.58;;;13.30;99.90;;;;;;4957439;28;20046;-76
2023/08/05 10:15:28;;;;;;;6.60;2.70;;;13.30;99.90;;;;;;4974526;28;20166;-76
2023/08/05 10:17:54;;;;;;;5.85;2.80;;;13.30;99.90;;;;;;4975390;28;20101;-76
2023/08/05 10:20:20;;;;;;;4.53;2.75;;;13.20;99.90;;;;;;4979842;28;20070;-77
2023/08/05 10:23:03;;;;;;;4.68;3.28;;;13.10;99.90;;;;;;4996065;28;20030;-77
2023/08/05 10:25:42;;;;;;;6.72;3.47;;;13.10;99.90;;;;;;4995481;28;20049;-77
2023/08/05 10:28:23;;;;;;;6.75;4.32;;;13.20;99.90;;;;;;4993833;28;20129;-77
2023/08/05 10:30:49;;;;;;;6.35;3.97;;;13.30;99.90;;;;;;4994758;28;20041;-77
2023/08/05 10:33:16;;;;;;;7.22;4.15;;;13.20;99.90;;;;;;4993630;28;20035;-77
2023/08/05 10:35:43;;;;;;;6.70;3.40;;;13.30;99.90;;;;;;4993955;28;20038;-77
2023/08/05 10:38:11;;;;;;;6.07;3.80;;;13.30;99.90;;;;;;4993730;28;20053;-76
2023/08/05 10:41:00;;;;;;;8.48;4.25;;;13.30;99.90;;;;;;4994066;28;20034;-77
2023/08/05 10:43:40;;;;;;;6.50;3.30;;;13.40;99.90;;;;;;4993024;28;20035;-77
2023/08/05 10:46:06;;;;;;;7.35;3.53;;;13.50;99.90;;;;;;4993362;28;20474;-77
2023/08/05 10:48:44;;;;;;;7.25;3.67;;;13.50;99.90;;;;;;4995065;28;20177;-77
2023/08/05 10:51:19;;;;;;;5.85;3.55;;;13.90;99.90;;;;;;4993405;28;20456;-75
2023/08/05 10:53:51;;;;;;;5.43;3.35;;;14.10;99.90;;;;;;4994291;28;20054;-75
2023/08/05 10:56:17;;;;;;;3.33;2.63;;;14.20;99.90;;;;;;4992989;28;20041;-76
2023/08/05 10:58:49;;;;;;;5.38;3.17;;;14.30;99.90;;;;;;4994006;28;20026;-76
2023/08/05 11:01:15;;;;;;;5.20;2.80;;;14.40;99.90;;;;;;4993358;28;20460;-76
2023/08/05 11:03:49;;;;;;;6.00;2.80;;;14.30;99.90;;;;;;4994041;28;20041;-76
2023/08/05 11:06:21;;;;;;;6.15;2.90;;;14.30;99.90;;;;;;4993110;28;20034;-75
2023/08/05 11:08:47;;;;;;;5.75;2.80;;;14.30;99.90;;;;;;4993142;28;20027;-76
2023/08/05 11:11:13;;;;;;;4.80;2.63;;;14.30;99.90;;;;;;4992903;28;20475;-77
2023/08/05 11:13:45;;;;;;;4.88;2.58;;;14.50;99.90;;;;;;4990424;28;20166;-76
2023/08/05 11:16:13;;;;;;;4.63;2.53;;;14.50;99.90;;;;;;4973774;28;20125;-77
2023/08/05 11:18:55;;;;;;;2.95;2.05;;;14.40;99.90;;;;;;4974011;28;20027;-77
2023/08/05 11:21:21;;;;;;;2.45;2.00;;;14.50;99.90;;;;;;4973115;28;20034;-77
2023/08/05 11:23:47;;;;;;;2.75;1.77;;;14.70;99.90;;;;;;4973958;28;20345;-77
2023/08/05 11:26:13;;;;;;;1.83;1.67;;;14.80;99.90;;;;;;4973345;28;20026;-75
2023/08/05 11:28:45;;;;;;;2.30;1.58;;;14.90;99.90;;;;;;4974005;28;20027;-75
2023/08/05 11:31:25;;;;;;;2.40;1.90;;;15.00;99.90;;;;;;4972908;28;20041;-75
2023/08/05 11:33:52;;;;;;;2.72;1.63;;;15.20;99.90;;;;;;4973626;28;20038;-75
2023/08/05 11:36:25;;;;;;;2.10;1.80;;;15.40;99.90;;;;;;4972968;28;20106;-77
2023/08/05 11:38:51;;;;;;;3.13;2.22;;;15.40;99.90;;;;;;4973414;28;20035;-75
2023/08/05 11:41:17;;;;;;;1.92;1.60;;;15.40;99.90;;;;;;4972855;28;20444;-76
2023/08/05 11:43:43;;;;;;;2.83;1.70;;;15.40;99.90;;;;;;4973939;28;20030;-76
2023/08/05 11:46:27;;;;;;;2.50;2.15;;;15.30;99.90;;;;;;4973020;28;20114;-77
2023/08/05 11:49:09;;;;;;;3.35;2.10;;;15.50;99.90;;;;;;4974098;28;20110;-76
2023/08/05 11:51:51;;;;;;;1.50;1.35;;;15.80;99.90;;;;;;4973118;28;20480;-76
2023/08/05 11:54:24;;;;;;;4.72;1.95;;;15.90;99.90;;;;;;4973373;28;20356;-76
2023/08/05 11:56:50;;;;;;;1.60;1.50;;;15.90;99.90;;;;;;4973250;28;20344;-76
2023/08/05 11:59:15;;;;;;;3.55;1.40;;;15.90;99.90;;;;;;4973305;28;20065;-76
2023/08/05 12:01:41;;;;;;;1.52;1.40;;;15.90;99.90;;;;;;4973158;28;20031;-76
2023/08/05 12:04:08;;;;;;;3.85;1.63;;;15.90;99.90;;;;;;4973757;28;20019;-76
2023/08/05 12:06:34;;;;;;;1.65;1.42;;;15.80;99.90;;;;;;4972754;28;20031;-76
2023/08/05 12:09:00;;;;;;;1.58;1.45;;;15.80;99.90;;;;;;4973233;28;20388;-76
2023/08/05 12:11:26;;;;;;;2.78;1.40;;;15.80;99.90;;;;;;4972399;28;20030;-76
2023/08/05 12:13:52;;;;;;;2.40;1.60;;;15.80;99.90;;;;;;4973110;28;20023;-75
2023/08/05 12:16:18;;;;;;;1.08;0.98;;;16.00;99.90;;;;;;4972649;28;20302;-76
2023/08/05 12:18:45;;;;;;;1.52;1.00;;;16.00;99.90;;;;;;4972794;28;20033;-76
2023/08/05 12:21:12;;;;;;;2.15;1.27;;;15.90;99.90;;;;;;4971936;28;20035;-78
2023/08/05 12:23:41;;;;;;;1.65;1.23;;;15.70;99.90;;;;;;4972545;28;20102;-77
2023/08/05 12:26:08;;;;;;;1.17;1.02;;;15.50;99.90;;;;;;4973215;28;20069;-76
2023/08/05 12:28:33;;;;;;;2.38;1.30;;;15.30;99.90;;;;;;4973182;28;20022;-76
2023/08/05 12:30:59;;;;;;;1.35;0.95;;;15.10;99.90;;;;;;4972527;28;20039;-76
2023/08/05 12:33:25;;;;;;;1.75;1.13;;;15.00;99.90;;;;;;4972920;28;20027;-76
2023/08/05 12:35:50;;;;;;;1.33;1.08;;;15.00;99.90;;;;;;4988135;28;20042;-76
2023/08/05 12:38:16;;;;;;;2.58;1.13;;;15.10;99.90;;;;;;4991841;28;20491;-77
2023/08/05 12:40:42;;;;;;;2.00;1.63;;;15.10;99.90;;;;;;4993340;28;20062;-74
2023/08/05 12:43:07;;;;;;;2.72;1.00;;;15.30;99.90;;;;;;4992179;28;20384;-75